Hillsdale, Wisconsin
Current Conditions -  °F | °C
As of 6:15 PM on Sunday 25 Jan 2015 (Local Time) from KRPD Reporting Station
Overcast Overcast  
Wind Chill: 19°   Ceiling: 11000
Heat Index: 19°   Visibility: 10mi
Dew Point: 11°   Wind: 3mph
Humidity: 70%   Direction: 280°W
Pressure: 30.06"   Gusts: NA
Location:  45.32°N, 91.86°W
Report Text: KRPD 260015Z AUTO 28003KT 10SM OVC110 M07/M12 A3006 RMK AO2 T10701117
Loading
Personal Weather Stations






























Interactive Weather Map New forecast layout! Learn more

10-Day Weather Forecast

Advertisements
Track Severe Weather on mobile